Time;durP1;ratioP1;P1;durP2;ratioP2;P2;SDS_P1;SDS_P2;PMS_P1;PMS_P2;Temp;Humidity;BMP_temperature;BMP_pressure;BME280_temperature;BME280_humidity;BME280_pressure;Samples;Min_cycle;Max_cycle;Signal;HPM_P1;HPM_P2
2023/08/20 00:01:39;;;;;;;9.23;6.07;;;;;;;;;;5021697;28;20194;-71
2023/08/20 00:04:05;;;;;;;13.20;6.20;;;;;;;;;;5031475;28;20213;-71
2023/08/20 00:06:30;;;;;;;12.20;6.65;;;;;;;;;;5022779;28;20222;-71
2023/08/20 00:08:56;;;;;;;10.88;6.20;;;;;;;;;;5029328;28;20186;-71
2023/08/20 00:11:21;;;;;;;10.52;6.68;;;;;;;;;;5030563;28;20267;-71
2023/08/20 00:13:47;;;;;;;9.55;5.88;;;;;;;;;;5015253;28;20190;-71
2023/08/20 00:16:12;;;;;;;9.70;6.47;;;;;;;;;;5032641;28;20334;-71
2023/08/20 00:18:38;;;;;;;11.75;6.32;;;;;;;;;;5031290;28;20205;-71
2023/08/20 00:21:04;;;;;;;12.43;6.88;;;;;;;;;;5031800;28;20283;-71
2023/08/20 00:23:30;;;;;;;11.32;6.90;;;;;;;;;;5027283;28;20224;-71
2023/08/20 00:25:56;;;;;;;10.30;7.25;;;;;;;;;;5031912;28;20265;-71
2023/08/20 00:28:21;;;;;;;10.18;6.72;;;;;;;;;;5029941;28;20346;-71
2023/08/20 00:30:46;;;;;;;12.63;6.75;;;;;;;;;;5031274;28;20972;-71
2023/08/20 00:33:12;;;;;;;7.93;6.07;;;;;;;;;;5032584;28;20201;-71
2023/08/20 00:35:37;;;;;;;8.68;6.50;;;;;;;;;;5030848;28;20210;-71
2023/08/20 00:38:03;;;;;;;10.48;6.60;;;;;;;;;;5030837;28;20190;-71
2023/08/20 00:40:29;;;;;;;14.65;6.60;;;;;;;;;;5029634;28;20186;-71
2023/08/20 00:42:55;;;;;;;14.82;6.90;;;;;;;;;;5031620;28;20222;-71
2023/08/20 00:45:20;;;;;;;8.25;5.72;;;;;;;;;;5031640;28;20548;-71
2023/08/20 00:47:46;;;;;;;8.02;6.20;;;;;;;;;;5029331;28;20194;-70
2023/08/20 00:50:11;;;;;;;9.07;6.60;;;;;;;;;;5033054;28;20225;-71
2023/08/20 00:52:37;;;;;;;13.48;6.53;;;;;;;;;;5029003;28;20224;-70
2023/08/20 00:55:15;;;;;;;13.05;7.47;;;;;;;;;;5031442;28;20734;-71
2023/08/20 00:57:41;;;;;;;11.32;6.68;;;;;;;;;;5031238;28;20190;-71
2023/08/20 01:00:09;;;;;;;10.18;6.47;;;;;;;;;;5031269;28;20297;-71
2023/08/20 01:02:35;;;;;;;11.40;7.07;;;;;;;;;;5033036;28;20182;-71
2023/08/20 01:05:01;;;;;;;13.70;6.82;;;;;;;;;;5032447;28;20621;-71
2023/08/20 01:07:47;;;;;;;11.63;7.00;;;;;;;;;;5030675;28;20235;-71
2023/08/20 01:10:30;;;;;;;13.60;7.22;;;;;;;;;;5032657;28;20254;-71
2023/08/20 01:12:56;;;;;;;11.43;7.18;;;;;;;;;;5024244;28;20186;-71
2023/08/20 01:15:21;;;;;;;10.32;7.20;;;;;;;;;;5031555;28;20214;-71
2023/08/20 01:17:48;;;;;;;18.85;8.40;;;;;;;;;;5021941;28;20225;-71
2023/08/20 01:20:15;;;;;;;18.73;8.60;;;;;;;;;;5012861;28;20270;-72
2023/08/20 01:22:44;;;;;;;16.35;7.43;;;;;;;;;;5029734;28;20189;-71
2023/08/20 01:25:32;;;;;;;13.70;7.18;;;;;;;;;;5032010;28;20269;-71
2023/08/20 01:28:02;;;;;;;20.63;7.10;;;;;;;;;;5030627;28;20186;-72
2023/08/20 01:30:29;;;;;;;15.68;7.82;;;;;;;;;;5030944;28;20194;-72
2023/08/20 01:32:55;;;;;;;12.20;7.32;;;;;;;;;;5034241;28;20600;-71
2023/08/20 01:35:25;;;;;;;11.25;7.50;;;;;;;;;;5028359;28;20205;-71
2023/08/20 01:37:51;;;;;;;16.90;7.75;;;;;;;;;;5014304;28;22851;-70
2023/08/20 01:40:16;;;;;;;13.60;7.63;;;;;;;;;;5031713;28;20652;-70
2023/08/20 01:42:42;;;;;;;12.57;7.63;;;;;;;;;;5029418;28;20190;-71
2023/08/20 01:45:07;;;;;;;13.70;8.02;;;;;;;;;;5027000;28;20193;-70
2023/08/20 01:47:33;;;;;;;13.38;7.60;;;;;;;;;;5029436;28;20201;-71
2023/08/20 01:49:59;;;;;;;15.23;7.45;;;;;;;;;;5029716;28;20209;-70
2023/08/20 01:52:25;;;;;;;13.13;7.47;;;;;;;;;;5032117;28;20224;-70
2023/08/20 01:54:50;;;;;;;15.63;7.07;;;;;;;;;;5032203;28;20198;-70
2023/08/20 01:57:15;;;;;;;15.38;7.82;;;;;;;;;;5030246;28;20186;-70
2023/08/20 01:59:41;;;;;;;17.17;7.75;;;;;;;;;;5009877;28;20646;-71
2023/08/20 02:02:06;;;;;;;12.68;7.38;;;;;;;;;;5029212;28;20255;-70
2023/08/20 02:04:32;;;;;;;19.42;7.38;;;;;;;;;;5029885;28;20664;-70
2023/08/20 02:06:58;;;;;;;18.42;7.75;;;;;;;;;;5029551;28;20225;-71
2023/08/20 02:09:24;;;;;;;17.08;7.97;;;;;;;;;;5031742;28;20274;-71
2023/08/20 02:11:50;;;;;;;14.15;7.80;;;;;;;;;;5027788;28;20190;-70
2023/08/20 02:14:15;;;;;;;12.75;7.32;;;;;;;;;;5030865;28;20419;-71
2023/08/20 02:16:41;;;;;;;13.45;8.07;;;;;;;;;;5025348;28;20469;-70
2023/08/20 02:19:07;;;;;;;12.50;7.47;;;;;;;;;;5029226;28;20197;-70
2023/08/20 02:21:33;;;;;;;13.07;7.28;;;;;;;;;;5030717;28;20656;-70
2023/08/20 02:23:58;;;;;;;14.25;7.32;;;;;;;;;;5030360;28;20320;-71
2023/08/20 02:26:23;;;;;;;15.25;7.82;;;;;;;;;;5029694;28;20178;-71
2023/08/20 02:28:49;;;;;;;12.63;6.88;;;;;;;;;;5028579;28;20219;-70
2023/08/20 02:31:14;;;;;;;14.25;7.45;;;;;;;;;;5035618;28;20619;-71
2023/08/20 02:33:39;;;;;;;16.02;7.47;;;;;;;;;;5024480;28;20201;-70
2023/08/20 02:36:05;;;;;;;17.02;8.57;;;;;;;;;;5028667;28;20348;-71
2023/08/20 02:38:31;;;;;;;14.63;7.95;;;;;;;;;;5023668;28;20197;-71
2023/08/20 02:40:56;;;;;;;16.17;8.30;;;;;;;;;;5029719;28;20222;-71
2023/08/20 02:43:21;;;;;;;15.55;8.30;;;;;;;;;;5028023;28;20259;-71
2023/08/20 02:45:47;;;;;;;16.50;8.30;;;;;;;;;;5030250;28;20400;-71
2023/08/20 02:48:14;;;;;;;18.02;8.73;;;;;;;;;;5030075;28;20238;-71
2023/08/20 02:50:39;;;;;;;15.95;8.60;;;;;;;;;;5029801;28;20213;-71
2023/08/20 02:53:05;;;;;;;16.70;8.45;;;;;;;;;;5027741;28;20198;-71
2023/08/20 02:55:31;;;;;;;17.33;8.93;;;;;;;;;;5029209;28;20705;-71
2023/08/20 02:57:57;;;;;;;16.70;8.75;;;;;;;;;;5020791;28;20193;-71
2023/08/20 03:00:22;;;;;;;17.98;8.32;;;;;;;;;;5030964;28;20190;-71
2023/08/20 03:02:47;;;;;;;14.73;8.23;;;;;;;;;;5019662;28;20210;-71
2023/08/20 03:05:14;;;;;;;14.05;7.85;;;;;;;;;;5025997;28;20190;-71
2023/08/20 03:07:39;;;;;;;14.27;8.15;;;;;;;;;;5030180;28;20506;-71
2023/08/20 03:10:06;;;;;;;14.50;8.25;;;;;;;;;;5028551;28;20197;-71
2023/08/20 03:12:31;;;;;;;15.63;8.02;;;;;;;;;;5029454;28;20190;-71
2023/08/20 03:14:56;;;;;;;15.43;8.27;;;;;;;;;;5031095;28;20232;-71
2023/08/20 03:17:22;;;;;;;18.60;8.80;;;;;;;;;;5032816;28;20676;-70
2023/08/20 03:19:58;;;;;;;17.63;8.63;;;;;;;;;;5023860;28;20202;-71
2023/08/20 03:22:24;;;;;;;14.50;8.27;;;;;;;;;;5032005;28;20186;-71
2023/08/20 03:24:50;;;;;;;12.98;8.70;;;;;;;;;;5035487;28;20233;-71
2023/08/20 03:27:16;;;;;;;14.75;9.18;;;;;;;;;;5033575;28;20197;-71
2023/08/20 03:29:42;;;;;;;12.30;8.45;;;;;;;;;;5022342;28;20539;-71
2023/08/20 03:32:07;;;;;;;16.90;8.15;;;;;;;;;;5030286;28;20217;-71
2023/08/20 03:34:33;;;;;;;15.35;8.40;;;;;;;;;;5032638;28;20232;-71
2023/08/20 03:36:58;;;;;;;12.95;8.13;;;;;;;;;;5028646;28;20277;-71
2023/08/20 03:39:23;;;;;;;19.67;9.10;;;;;;;;;;5024752;28;20190;-71
2023/08/20 03:41:50;;;;;;;15.07;8.57;;;;;;;;;;5030097;28;20277;-71
2023/08/20 03:44:16;;;;;;;15.52;8.55;;;;;;;;;;5018654;28;20258;-71
2023/08/20 03:46:41;;;;;;;16.60;8.43;;;;;;;;;;5022591;28;20218;-71
2023/08/20 03:49:06;;;;;;;12.70;8.38;;;;;;;;;;5024975;28;20198;-71
2023/08/20 03:51:32;;;;;;;15.73;8.77;;;;;;;;;;5028391;28;20298;-70
2023/08/20 03:53:57;;;;;;;14.50;8.63;;;;;;;;;;5026635;28;20206;-71
2023/08/20 03:56:22;;;;;;;17.83;9.63;;;;;;;;;;5025998;28;20241;-70
2023/08/20 03:58:48;;;;;;;18.15;10.20;;;;;;;;;;5031777;28;20408;-71
2023/08/20 04:01:13;;;;;;;20.83;9.82;;;;;;;;;;5032145;28;20209;-70
2023/08/20 04:03:39;;;;;;;16.65;9.07;;;;;;;;;;5030018;28;20199;-70
2023/08/20 04:06:04;;;;;;;15.30;9.00;;;;;;;;;;5031824;28;20269;-70
2023/08/20 04:08:29;;;;;;;17.77;9.05;;;;;;;;;;5011052;28;20636;-70
2023/08/20 04:10:55;;;;;;;13.65;8.65;;;;;;;;;;5031409;28;20282;-70
2023/08/20 04:13:20;;;;;;;14.30;9.10;;;;;;;;;;5030543;28;20190;-71
2023/08/20 04:15:46;;;;;;;13.55;8.75;;;;;;;;;;5031319;28;20218;-71
2023/08/20 04:18:11;;;;;;;21.02;9.88;;;;;;;;;;5017793;28;20228;-70
2023/08/20 04:20:37;;;;;;;17.35;9.40;;;;;;;;;;5025661;28;20205;-70
2023/08/20 04:23:02;;;;;;;16.02;8.32;;;;;;;;;;5025417;28;20221;-70
2023/08/20 04:25:28;;;;;;;12.00;8.23;;;;;;;;;;5031510;28;20190;-70
2023/08/20 04:27:53;;;;;;;14.98;8.10;;;;;;;;;;5021539;28;20195;-71
2023/08/20 04:30:18;;;;;;;12.82;8.57;;;;;;;;;;5029449;28;20621;-70
2023/08/20 04:32:44;;;;;;;12.98;7.78;;;;;;;;;;5018766;28;20220;-70
2023/08/20 04:35:10;;;;;;;13.25;8.27;;;;;;;;;;5026612;28;20309;-70
2023/08/20 04:37:35;;;;;;;18.85;9.30;;;;;;;;;;5030048;28;20190;-70
2023/08/20 04:40:01;;;;;;;16.00;8.95;;;;;;;;;;5027442;28;20182;-70
2023/08/20 04:42:26;;;;;;;14.60;9.02;;;;;;;;;;5022087;28;20190;-70
2023/08/20 04:44:52;;;;;;;16.98;9.43;;;;;;;;;;5028316;28;20279;-70
2023/08/20 04:47:17;;;;;;;15.18;9.38;;;;;;;;;;5030776;28;20190;-70
2023/08/20 04:49:43;;;;;;;14.90;9.63;;;;;;;;;;5029845;28;20263;-70
2023/08/20 04:52:08;;;;;;;17.77;10.02;;;;;;;;;;5031573;28;20201;-70
2023/08/20 04:54:34;;;;;;;17.00;9.65;;;;;;;;;;5031253;28;20255;-70
2023/08/20 04:56:59;;;;;;;15.52;9.82;;;;;;;;;;5027726;28;20520;-70
2023/08/20 04:59:24;;;;;;;15.32;9.65;;;;;;;;;;5025725;28;20192;-70
2023/08/20 05:01:50;;;;;;;16.98;10.32;;;;;;;;;;5023512;28;20190;-70
2023/08/20 05:04:15;;;;;;;14.52;9.57;;;;;;;;;;5028777;28;20194;-70
2023/08/20 05:06:41;;;;;;;16.73;9.02;;;;;;;;;;5025089;28;20251;-70
2023/08/20 05:09:06;;;;;;;16.50;9.98;;;;;;;;;;5031412;28;20190;-70
2023/08/20 05:11:32;;;;;;;18.17;11.10;;;;;;;;;;5031381;28;20311;-70
2023/08/20 05:13:58;;;;;;;17.20;10.75;;;;;;;;;;5023970;28;20198;-70
2023/08/20 05:16:24;;;;;;;18.75;11.48;;;;;;;;;;5030796;28;20209;-70
2023/08/20 05:18:49;;;;;;;16.15;11.32;;;;;;;;;;5021128;28;20229;-70
2023/08/20 05:21:14;;;;;;;18.85;10.70;;;;;;;;;;5022457;28;20555;-70
2023/08/20 05:23:40;;;;;;;18.90;10.88;;;;;;;;;;5016210;28;20195;-70
2023/08/20 05:26:07;;;;;;;15.23;10.43;;;;;;;;;;5029366;28;20186;-70
2023/08/20 05:28:32;;;;;;;19.45;11.07;;;;;;;;;;5028066;28;20189;-70
2023/08/20 05:30:58;;;;;;;25.13;11.65;;;;;;;;;;5032684;28;20197;-70
2023/08/20 05:33:24;;;;;;;15.95;10.70;;;;;;;;;;5024905;28;20191;-70
2023/08/20 05:35:50;;;;;;;17.23;11.27;;;;;;;;;;5028228;28;20285;-70
2023/08/20 05:38:16;;;;;;;15.35;10.57;;;;;;;;;;5013046;28;20201;-70
2023/08/20 05:40:42;;;;;;;18.83;12.32;;;;;;;;;;5031881;28;20186;-70
2023/08/20 05:43:08;;;;;;;18.85;12.65;;;;;;;;;;5030538;28;20365;-70
2023/08/20 05:45:33;;;;;;;18.80;13.20;;;;;;;;;;5030190;28;20179;-71
2023/08/20 05:47:58;;;;;;;22.77;14.27;;;;;;;;;;5027141;28;20253;-70
2023/08/20 05:50:24;;;;;;;18.70;15.27;;;;;;;;;;5032692;28;20194;-70
2023/08/20 05:52:49;;;;;;;22.38;15.35;;;;;;;;;;5019598;28;20656;-70
2023/08/20 05:55:15;;;;;;;22.67;15.52;;;;;;;;;;5030189;28;20206;-69
2023/08/20 05:57:42;;;;;;;28.60;17.25;;;;;;;;;;5030811;28;20273;-69
2023/08/20 06:00:08;;;;;;;28.42;16.30;;;;;;;;;;5027492;28;20248;-69
2023/08/20 06:02:34;;;;;;;24.85;15.93;;;;;;;;;;5031620;28;20551;-69
2023/08/20 06:04:59;;;;;;;27.85;17.08;;;;;;;;;;5030963;28;20194;-69
2023/08/20 06:07:25;;;;;;;25.63;17.08;;;;;;;;;;5031235;28;20225;-70
2023/08/20 06:09:50;;;;;;;26.83;17.25;;;;;;;;;;5028883;28;20186;-70
2023/08/20 06:12:16;;;;;;;24.00;17.40;;;;;;;;;;5026127;28;20187;-70
2023/08/20 06:14:42;;;;;;;33.30;18.02;;;;;;;;;;5027001;28;20240;-70
2023/08/20 06:17:07;;;;;;;27.30;17.75;;;;;;;;;;5015483;28;20206;-70
2023/08/20 06:19:33;;;;;;;24.30;16.67;;;;;;;;;;5025045;28;20205;-69
2023/08/20 06:21:58;;;;;;;28.15;16.85;;;;;;;;;;5016890;28;20273;-70
2023/08/20 06:24:24;;;;;;;25.27;17.27;;;;;;;;;;5031873;28;20567;-72
2023/08/20 06:26:49;;;;;;;27.30;16.02;;;;;;;;;;5020506;28;20230;-71
2023/08/20 06:29:14;;;;;;;28.08;16.83;;;;;;;;;;5026450;28;20186;-70
2023/08/20 06:31:40;;;;;;;27.13;15.70;;;;;;;;;;5036679;28;20194;-71
2023/08/20 06:34:06;;;;;;;22.85;15.48;;;;;;;;;;5028715;28;20202;-70
2023/08/20 06:36:31;;;;;;;30.73;16.35;;;;;;;;;;5029270;28;20288;-70
2023/08/20 06:38:56;;;;;;;23.77;15.68;;;;;;;;;;5030574;28;20589;-70
2023/08/20 06:41:23;;;;;;;22.55;14.18;;;;;;;;;;5030578;28;20264;-70
2023/08/20 06:43:48;;;;;;;23.50;13.63;;;;;;;;;;5022319;28;20242;-70
2023/08/20 06:46:13;;;;;;;22.48;14.85;;;;;;;;;;5024058;28;20205;-70
2023/08/20 06:48:39;;;;;;;22.42;14.23;;;;;;;;;;5025777;28;20199;-70
2023/08/20 06:51:11;;;;;;;21.92;14.73;;;;;;;;;;5021280;28;20190;-70
2023/08/20 06:53:37;;;;;;;20.90;13.27;;;;;;;;;;5011655;28;20202;-70
2023/08/20 06:56:03;;;;;;;20.95;12.02;;;;;;;;;;5020175;28;20853;-70
2023/08/20 06:58:28;;;;;;;21.55;11.43;;;;;;;;;;5029330;28;20182;-71
2023/08/20 07:00:54;;;;;;;22.63;13.43;;;;;;;;;;5031259;28;20546;-70
2023/08/20 07:03:19;;;;;;;18.88;10.90;;;;;;;;;;5029699;28;20186;-70
2023/08/20 07:05:45;;;;;;;20.58;11.23;;;;;;;;;;5028649;28;20186;-70
2023/08/20 07:08:10;;;;;;;16.90;10.13;;;;;;;;;;5030881;28;20634;-71
2023/08/20 07:10:35;;;;;;;19.42;10.50;;;;;;;;;;5032412;28;20194;-70
2023/08/20 07:13:01;;;;;;;18.25;10.15;;;;;;;;;;5031111;28;20220;-70
2023/08/20 07:15:26;;;;;;;14.25;9.15;;;;;;;;;;5012433;28;20221;-70
2023/08/20 07:17:52;;;;;;;17.90;8.75;;;;;;;;;;5021806;28;20211;-70
2023/08/20 07:20:17;;;;;;;16.42;7.95;;;;;;;;;;5027380;28;20202;-70
2023/08/20 07:22:42;;;;;;;13.13;7.53;;;;;;;;;;5027803;28;20201;-70
2023/08/20 07:25:08;;;;;;;16.85;8.27;;;;;;;;;;5018913;28;20670;-71
2023/08/20 07:27:33;;;;;;;12.95;7.55;;;;;;;;;;5028822;28;20202;-71
2023/08/20 07:29:59;;;;;;;15.60;8.38;;;;;;;;;;5032134;28;20207;-71
2023/08/20 07:32:24;;;;;;;17.70;9.23;;;;;;;;;;5034354;28;20182;-71
2023/08/20 07:34:50;;;;;;;18.05;8.85;;;;;;;;;;5031308;28;20205;-71
2023/08/20 07:37:15;;;;;;;15.30;7.45;;;;;;;;;;5010347;28;20190;-70
2023/08/20 07:39:41;;;;;;;12.77;6.55;;;;;;;;;;5028009;28;20308;-71
2023/08/20 07:42:06;;;;;;;11.90;7.10;;;;;;;;;;5030236;28;20193;-70
2023/08/20 07:44:32;;;;;;;14.50;5.85;;;;;;;;;;5028910;28;20299;-70
2023/08/20 07:46:57;;;;;;;11.25;5.03;;;;;;;;;;5029220;28;20613;-69
2023/08/20 07:49:22;;;;;;;13.35;4.35;;;;;;;;;;5022070;28;20217;-70
2023/08/20 07:51:49;;;;;;;7.38;2.90;;;;;;;;;;5027671;28;20186;-70
2023/08/20 07:54:17;;;;;;;14.52;3.17;;;;;;;;;;5028905;28;20225;-70
2023/08/20 07:56:43;;;;;;;8.00;2.92;;;;;;;;;;5029743;28;20182;-70
2023/08/20 07:59:08;;;;;;;6.97;2.88;;;;;;;;;;5028146;28;20205;-70
2023/08/20 08:01:33;;;;;;;13.57;3.00;;;;;;;;;;5030976;28;20185;-70
2023/08/20 08:03:59;;;;;;;10.65;2.72;;;;;;;;;;5029136;28;20349;-70
2023/08/20 08:06:24;;;;;;;8.65;2.72;;;;;;;;;;5031409;28;20209;-70
2023/08/20 08:08:50;;;;;;;8.55;2.35;;;;;;;;;;5034010;28;20608;-70
2023/08/20 08:11:15;;;;;;;11.25;2.65;;;;;;;;;;5033576;28;20296;-70
2023/08/20 08:13:40;;;;;;;9.60;2.53;;;;;;;;;;5032559;28;20194;-70
2023/08/20 08:16:06;;;;;;;9.82;2.85;;;;;;;;;;5031849;28;20665;-70
2023/08/20 08:18:31;;;;;;;5.18;1.90;;;;;;;;;;5031996;28;20234;-70
2023/08/20 08:20:56;;;;;;;14.95;2.50;;;;;;;;;;5031230;28;20222;-70
2023/08/20 08:23:22;;;;;;;8.00;2.22;;;;;;;;;;5033123;28;20190;-70
2023/08/20 08:25:48;;;;;;;5.03;1.65;;;;;;;;;;5032859;28;20626;-70
2023/08/20 08:28:13;;;;;;;8.20;1.90;;;;;;;;;;5031749;28;20186;-70
2023/08/20 08:30:39;;;;;;;5.22;1.40;;;;;;;;;;5034508;28;20185;-69
2023/08/20 08:33:05;;;;;;;9.15;2.10;;;;;;;;;;5032990;28;20213;-70
2023/08/20 08:35:30;;;;;;;7.55;2.17;;;;;;;;;;5031977;28;20658;-70
2023/08/20 08:37:57;;;;;;;9.07;2.08;;;;;;;;;;5032923;28;20190;-70
2023/08/20 08:40:27;;;;;;;9.27;2.08;;;;;;;;;;5032447;28;20205;-70
2023/08/20 08:42:53;;;;;;;7.72;2.20;;;;;;;;;;5017764;28;20270;-71
2023/08/20 08:45:21;;;;;;;8.50;2.15;;;;;;;;;;5031546;28;20182;-71
2023/08/20 08:47:48;;;;;;;6.93;2.25;;;;;;;;;;5031639;28;20201;-71
2023/08/20 08:50:13;;;;;;;8.85;2.20;;;;;;;;;;5024337;28;20193;-71
2023/08/20 08:52:41;;;;;;;8.73;2.10;;;;;;;;;;5032613;28;20186;-71
2023/08/20 08:55:08;;;;;;;7.72;1.85;;;;;;;;;;5031848;28;20210;-70
2023/08/20 08:57:35;;;;;;;7.93;1.70;;;;;;;;;;5033205;28;20240;-69
2023/08/20 09:00:00;;;;;;;9.30;2.28;;;;;;;;;;5025235;28;20221;-69
2023/08/20 09:02:26;;;;;;;10.32;1.92;;;;;;;;;;5035742;28;20193;-69
2023/08/20 09:04:52;;;;;;;11.32;2.33;;;;;;;;;;5037789;28;20548;-69
2023/08/20 09:07:17;;;;;;;10.65;2.55;;;;;;;;;;5018474;28;20213;-69
2023/08/20 09:09:46;;;;;;;7.00;2.15;;;;;;;;;;5032132;28;20248;-69
2023/08/20 09:12:21;;;;;;;8.65;2.10;;;;;;;;;;5027618;28;20213;-69
2023/08/20 09:14:48;;;;;;;10.30;2.72;;;;;;;;;;5031160;28;20680;-69
2023/08/20 09:17:14;;;;;;;9.50;2.20;;;;;;;;;;5031567;28;20353;-70
2023/08/20 09:19:42;;;;;;;10.80;2.40;;;;;;;;;;5031464;28;20193;-70
2023/08/20 09:22:08;;;;;;;6.38;2.15;;;;;;;;;;5012470;28;20198;-69
2023/08/20 09:24:39;;;;;;;9.90;2.47;;;;;;;;;;5026221;28;20332;-70
2023/08/20 09:27:05;;;;;;;8.35;2.40;;;;;;;;;;5026231;28;20273;-70
2023/08/20 09:29:47;;;;;;;9.95;2.65;;;;;;;;;;5024051;28;20194;-70
2023/08/20 09:32:19;;;;;;;7.70;2.22;;;;;;;;;;5027112;28;20244;-70
2023/08/20 09:34:47;;;;;;;7.55;2.25;;;;;;;;;;5030885;28;20210;-70
2023/08/20 09:37:13;;;;;;;12.88;3.78;;;;;;;;;;5031180;28;20348;-70
2023/08/20 09:39:39;;;;;;;8.43;2.22;;;;;;;;;;5030880;28;20190;-68
2023/08/20 09:42:06;;;;;;;8.93;2.78;;;;;;;;;;5031502;28;20549;-69
2023/08/20 09:44:35;;;;;;;8.63;2.50;;;;;;;;;;5029560;28;20238;-69
2023/08/20 09:47:12;;;;;;;6.70;1.83;;;;;;;;;;5031867;28;20186;-69
2023/08/20 09:49:42;;;;;;;13.27;2.83;;;;;;;;;;5030829;28;20193;-70
2023/08/20 09:52:09;;;;;;;8.35;2.20;;;;;;;;;;5031976;28;20193;-70
2023/08/20 09:54:47;;;;;;;8.45;2.28;;;;;;;;;;5028861;28;20198;-69
2023/08/20 09:57:27;;;;;;;7.30;2.15;;;;;;;;;;5023346;28;20328;-70
2023/08/20 09:59:53;;;;;;;8.00;2.13;;;;;;;;;;5017162;28;20657;-70
2023/08/20 10:02:19;;;;;;;6.55;1.92;;;;;;;;;;5030174;28;20368;-70
2023/08/20 10:04:44;;;;;;;6.95;1.90;;;;;;;;;;5026749;28;20277;-70
2023/08/20 10:07:11;;;;;;;7.63;2.00;;;;;;;;;;5029984;28;20197;-70
2023/08/20 10:09:38;;;;;;;7.30;2.25;;;;;;;;;;5029817;28;20245;-69
2023/08/20 10:12:04;;;;;;;3.75;1.40;;;;;;;;;;5019450;28;20178;-70
2023/08/20 10:14:30;;;;;;;6.80;2.10;;;;;;;;;;5024155;28;20254;-70
2023/08/20 10:16:56;;;;;;;7.28;2.08;;;;;;;;;;5024775;28;20361;-71
2023/08/20 10:19:23;;;;;;;5.15;1.52;;;;;;;;;;5019018;28;20194;-70
2023/08/20 10:21:52;;;;;;;7.22;1.98;;;;;;;;;;5024113;28;20194;-70
2023/08/20 10:24:19;;;;;;;5.15;1.92;;;;;;;;;;5010316;28;20183;-70
2023/08/20 10:26:48;;;;;;;4.38;1.38;;;;;;;;;;5010595;28;20209;-69
2023/08/20 10:29:39;;;;;;;3.60;1.30;;;;;;;;;;5024374;28;20211;-69
2023/08/20 10:32:11;;;;;;;3.85;1.25;;;;;;;;;;5035877;28;20190;-69
2023/08/20 10:34:38;;;;;;;2.28;1.10;;;;;;;;;;5029320;28;20178;-71
2023/08/20 10:37:12;;;;;;;4.22;1.40;;;;;;;;;;5025680;28;20591;-70
2023/08/20 10:39:38;;;;;;;4.53;1.40;;;;;;;;;;5011172;28;20269;-70
2023/08/20 10:42:23;;;;;;;3.95;1.27;;;;;;;;;;5018821;28;20633;-72
2023/08/20 10:45:08;;;;;;;5.18;1.48;;;;;;;;;;5028385;28;20256;-70
2023/08/20 10:47:44;;;;;;;4.10;1.30;;;;;;;;;;5020504;28;20222;-70
2023/08/20 10:50:16;;;;;;;4.95;1.50;;;;;;;;;;5029948;28;20670;-70
2023/08/20 10:52:48;;;;;;;4.15;1.33;;;;;;;;;;5030855;28;20205;-70
2023/08/20 10:55:14;;;;;;;4.85;1.42;;;;;;;;;;5030308;28;20233;-70
2023/08/20 10:57:40;;;;;;;4.43;1.70;;;;;;;;;;5030494;28;20501;-70
2023/08/20 11:00:11;;;;;;;2.90;1.05;;;;;;;;;;5029224;28;20214;-73
2023/08/20 11:02:38;;;;;;;3.60;1.08;;;;;;;;;;5030638;28;20190;-71
2023/08/20 11:05:04;;;;;;;3.92;1.13;;;;;;;;;;5029995;28;20217;-70
2023/08/20 11:07:31;;;;;;;4.25;1.00;;;;;;;;;;5025345;28;20264;-71
2023/08/20 11:09:57;;;;;;;6.70;1.55;;;;;;;;;;5015585;28;20194;-74
2023/08/20 11:12:23;;;;;;;2.13;1.10;;;;;;;;;;5017884;28;20281;-71
2023/08/20 11:14:48;;;;;;;2.47;1.00;;;;;;;;;;5030513;28;20337;-70
2023/08/20 11:17:14;;;;;;;2.95;0.82;;;;;;;;;;5028824;28;20661;-70
2023/08/20 11:19:39;;;;;;;1.38;0.80;;;;;;;;;;5030773;28;20193;-73
2023/08/20 11:22:05;;;;;;;2.25;0.77;;;;;;;;;;5031305;28;20252;-70
2023/08/20 11:24:30;;;;;;;1.55;0.80;;;;;;;;;;5030365;28;20182;-70
2023/08/20 11:26:56;;;;;;;2.60;0.70;;;;;;;;;;5026693;28;20205;-72
2023/08/20 11:29:22;;;;;;;3.63;0.80;;;;;;;;;;5029935;28;20182;-70
2023/08/20 11:31:48;;;;;;;3.65;0.70;;;;;;;;;;5033422;28;20265;-71
2023/08/20 11:34:13;;;;;;;1.92;0.77;;;;;;;;;;5031112;28;20182;-70
2023/08/20 11:36:40;;;;;;;4.63;1.05;;;;;;;;;;5032234;28;20545;-71
2023/08/20 11:39:07;;;;;;;3.30;0.75;;;;;;;;;;5035830;28;20272;-70
2023/08/20 11:41:35;;;;;;;3.08;0.70;;;;;;;;;;5024254;28;20660;-72
2023/08/20 11:44:01;;;;;;;1.95;0.93;;;;;;;;;;5025662;28;20265;-69
2023/08/20 11:46:26;;;;;;;2.78;0.65;;;;;;;;;;5022087;28;20651;-69
2023/08/20 11:49:26;;;;;;;2.25;0.77;;;;;;;;;;5033111;28;20240;-71
2023/08/20 11:51:52;;;;;;;2.53;0.60;;;;;;;;;;5039112;28;20688;-70
2023/08/20 11:54:18;;;;;;;2.40;0.77;;;;;;;;;;5034384;28;20182;-71
2023/08/20 11:56:49;;;;;;;2.42;0.60;;;;;;;;;;5034598;28;20220;-75
2023/08/20 11:59:16;;;;;;;1.92;0.98;;;;;;;;;;5034958;28;20201;-70
2023/08/20 12:01:42;;;;;;;2.38;0.73;;;;;;;;;;5035652;28;20194;-71
2023/08/20 12:04:08;;;;;;;2.78;0.68;;;;;;;;;;5033336;28;20523;-70
2023/08/20 12:06:36;;;;;;;4.43;0.88;;;;;;;;;;5022471;28;20694;-71
2023/08/20 12:09:17;;;;;;;3.20;0.80;;;;;;;;;;5021070;28;20251;-71
2023/08/20 12:11:50;;;;;;;3.28;0.73;;;;;;;;;;5035480;28;20265;-73
2023/08/20 12:14:17;;;;;;;2.00;0.80;;;;;;;;;;5034444;28;20183;-71
2023/08/20 12:16:43;;;;;;;2.05;0.80;;;;;;;;;;4990863;28;20214;-74
2023/08/20 12:19:09;;;;;;;3.63;0.90;;;;;;;;;;5037339;28;20276;-71
2023/08/20 12:21:34;;;;;;;4.00;1.10;;;;;;;;;;5036628;28;20650;-71
2023/08/20 12:24:00;;;;;;;3.35;0.80;;;;;;;;;;5035133;28;20262;-70
2023/08/20 12:26:25;;;;;;;4.35;1.00;;;;;;;;;;5023799;28;20226;-71
2023/08/20 12:28:50;;;;;;;2.92;0.80;;;;;;;;;;5019253;28;20195;-70
2023/08/20 12:31:16;;;;;;;4.88;0.88;;;;;;;;;;5037471;28;20265;-71
2023/08/20 12:33:41;;;;;;;2.83;0.80;;;;;;;;;;5028832;28;20190;-71
2023/08/20 12:36:07;;;;;;;4.07;0.90;;;;;;;;;;5016557;28;20210;-71
2023/08/20 12:38:33;;;;;;;2.90;0.70;;;;;;;;;;5026540;28;20256;-71
2023/08/20 12:41:00;;;;;;;2.33;0.80;;;;;;;;;;5034701;28;20201;-72
2023/08/20 12:43:26;;;;;;;2.70;0.75;;;;;;;;;;5035843;28;20339;-71
2023/08/20 12:45:52;;;;;;;1.70;0.90;;;;;;;;;;5030263;28;20269;-70
2023/08/20 12:48:18;;;;;;;2.47;0.93;;;;;;;;;;5036233;28;20289;-70
2023/08/20 12:50:43;;;;;;;1.38;0.73;;;;;;;;;;5034505;28;20228;-71
2023/08/20 12:53:09;;;;;;;3.47;0.98;;;;;;;;;;5035819;28;20263;-70
2023/08/20 12:55:34;;;;;;;2.20;0.90;;;;;;;;;;5032667;28;20271;-70
2023/08/20 12:58:00;;;;;;;2.67;0.90;;;;;;;;;;5025103;28;20197;-71
2023/08/20 13:00:26;;;;;;;1.88;0.73;;;;;;;;;;5015567;28;20656;-71
2023/08/20 13:02:53;;;;;;;3.08;0.70;;;;;;;;;;5035198;28;20196;-72
2023/08/20 13:05:19;;;;;;;2.90;0.60;;;;;;;;;;5033741;28;20182;-74
2023/08/20 13:07:45;;;;;;;2.22;0.77;;;;;;;;;;5025929;28;20621;-71
2023/08/20 13:10:12;;;;;;;3.83;0.95;;;;;;;;;;5020547;28;20205;-72
2023/08/20 13:12:42;;;;;;;2.70;0.85;;;;;;;;;;5033480;28;20194;-72
2023/08/20 13:15:09;;;;;;;4.65;0.70;;;;;;;;;;5033400;28;20202;-72
2023/08/20 13:17:35;;;;;;;3.75;0.90;;;;;;;;;;5012414;28;20211;-72
2023/08/20 13:20:01;;;;;;;2.53;1.15;;;;;;;;;;5027002;28;20673;-72
2023/08/20 13:22:26;;;;;;;3.22;0.80;;;;;;;;;;5032927;28;20186;-72
2023/08/20 13:24:51;;;;;;;2.08;0.70;;;;;;;;;;5032230;28;20319;-72
2023/08/20 13:27:17;;;;;;;2.83;0.95;;;;;;;;;;5021624;28;20273;-71
2023/08/20 13:29:43;;;;;;;2.15;1.00;;;;;;;;;;5033062;28;20394;-73
2023/08/20 13:32:08;;;;;;;2.65;0.90;;;;;;;;;;5036916;28;20204;-72
2023/08/20 13:34:34;;;;;;;5.10;1.00;;;;;;;;;;5034209;28;20194;-73
2023/08/20 13:36:59;;;;;;;3.22;0.95;;;;;;;;;;5011270;28;20194;-73
2023/08/20 13:39:25;;;;;;;3.38;1.23;;;;;;;;;;5028428;28;20310;-72
2023/08/20 13:41:51;;;;;;;3.92;0.85;;;;;;;;;;5022768;28;20212;-72
2023/08/20 13:44:16;;;;;;;3.17;0.80;;;;;;;;;;5040607;28;20578;-72
2023/08/20 13:46:41;;;;;;;3.53;1.02;;;;;;;;;;5016187;28;20209;-73
2023/08/20 13:49:07;;;;;;;2.95;1.00;;;;;;;;;;5032389;28;20565;-72
2023/08/20 13:51:32;;;;;;;6.68;1.15;;;;;;;;;;5014503;28;20178;-71
2023/08/20 13:53:58;;;;;;;3.55;1.10;;;;;;;;;;5033036;28;20194;-70
2023/08/20 13:56:25;;;;;;;3.70;1.10;;;;;;;;;;5033445;28;20209;-71
2023/08/20 13:58:51;;;;;;;3.63;0.88;;;;;;;;;;5006405;28;20217;-71
2023/08/20 14:01:16;;;;;;;4.50;1.00;;;;;;;;;;5030820;28;20210;-72
2023/08/20 14:03:41;;;;;;;5.05;1.20;;;;;;;;;;5029647;28;20190;-71
2023/08/20 14:06:07;;;;;;;3.03;0.80;;;;;;;;;;5029594;28;20289;-73
2023/08/20 14:08:32;;;;;;;3.28;1.00;;;;;;;;;;5027448;28;20244;-70
2023/08/20 14:10:58;;;;;;;2.33;0.88;;;;;;;;;;5033428;28;20715;-71
2023/08/20 14:13:24;;;;;;;3.72;1.00;;;;;;;;;;5028626;28;20199;-72
2023/08/20 14:15:49;;;;;;;5.65;1.13;;;;;;;;;;5033829;28;20222;-71
2023/08/20 14:18:15;;;;;;;2.47;0.90;;;;;;;;;;5008881;28;20305;-73
2023/08/20 14:20:40;;;;;;;4.85;0.90;;;;;;;;;;5031096;28;20660;-73
2023/08/20 14:23:06;;;;;;;3.83;1.00;;;;;;;;;;5033571;28;20200;-72
2023/08/20 14:25:31;;;;;;;2.67;1.10;;;;;;;;;;5032742;28;20232;-72
2023/08/20 14:27:57;;;;;;;2.72;1.00;;;;;;;;;;5025194;28;20281;-72
2023/08/20 14:30:22;;;;;;;3.38;0.80;;;;;;;;;;5031207;28;20652;-72